sensor_id;sensor_type;location;lat;lon;timestamp;temperature;humidity
1546;DHT22;766;51.502;9.752;2022-10-30T00:01:22;13.50;99.90
1546;DHT22;766;51.502;9.752;2022-10-30T00:03:51;13.50;99.90
1546;DHT22;766;51.502;9.752;2022-10-30T00:06:19;13.50;99.90
1546;DHT22;766;51.502;9.752;2022-10-30T00:08:48;13.50;99.90
1546;DHT22;766;51.502;9.752;2022-10-30T00:11:17;13.60;99.90
1546;DHT22;766;51.502;9.752;2022-10-30T00:13:46;13.50;99.90
1546;DHT22;766;51.502;9.752;2022-10-30T00:16:15;13.50;99.90
1546;DHT22;766;51.502;9.752;2022-10-30T00:18:43;13.60;99.90
1546;DHT22;766;51.502;9.752;2022-10-30T00:21:13;13.70;99.90
1546;DHT22;766;51.502;9.752;2022-10-30T00:23:44;13.60;99.90
1546;DHT22;766;51.502;9.752;2022-10-30T00:26:14;13.20;99.90
1546;DHT22;766;51.502;9.752;2022-10-30T00:28:43;12.80;99.90
1546;DHT22;766;51.502;9.752;2022-10-30T00:31:13;12.80;99.90
1546;DHT22;766;51.502;9.752;2022-10-30T00:33:41;13.00;99.90
1546;DHT22;766;51.502;9.752;2022-10-30T00:36:09;13.10;99.90
1546;DHT22;766;51.502;9.752;2022-10-30T00:38:37;13.10;99.90
1546;DHT22;766;51.502;9.752;2022-10-30T00:41:09;13.00;99.90
1546;DHT22;766;51.502;9.752;2022-10-30T00:43:40;13.20;99.90
1546;DHT22;766;51.502;9.752;2022-10-30T00:46:15;13.40;99.90
1546;DHT22;766;51.502;9.752;2022-10-30T00:48:47;13.40;99.90
1546;DHT22;766;51.502;9.752;2022-10-30T00:51:18;13.40;99.90
1546;DHT22;766;51.502;9.752;2022-10-30T00:53:47;13.40;99.90
1546;DHT22;766;51.502;9.752;2022-10-30T00:56:18;13.30;99.90
1546;DHT22;766;51.502;9.752;2022-10-30T00:58:51;13.30;99.90
1546;DHT22;766;51.502;9.752;2022-10-30T01:01:25;13.30;99.90
1546;DHT22;766;51.502;9.752;2022-10-30T01:03:56;13.20;99.90
1546;DHT22;766;51.502;9.752;2022-10-30T01:06:25;13.20;99.90
1546;DHT22;766;51.502;9.752;2022-10-30T01:08:55;13.20;99.90
1546;DHT22;766;51.502;9.752;2022-10-30T01:11:26;13.10;99.90
1546;DHT22;766;51.502;9.752;2022-10-30T01:13:57;13.00;99.90
1546;DHT22;766;51.502;9.752;2022-10-30T01:16:54;13.10;99.90
1546;DHT22;766;51.502;9.752;2022-10-30T01:19:33;12.90;99.90
1546;DHT22;766;51.502;9.752;2022-10-30T01:22:14;12.90;99.90
1546;DHT22;766;51.502;9.752;2022-10-30T01:24:56;13.10;99.90
1546;DHT22;766;51.502;9.752;2022-10-30T01:27:36;13.20;99.90
1546;DHT22;766;51.502;9.752;2022-10-30T01:30:15;13.10;99.90
1546;DHT22;766;51.502;9.752;2022-10-30T01:32:58;13.30;99.90
1546;DHT22;766;51.502;9.752;2022-10-30T01:35:37;13.20;99.90
1546;DHT22;766;51.502;9.752;2022-10-30T01:38:11;13.10;99.90
1546;DHT22;766;51.502;9.752;2022-10-30T01:40:43;13.40;99.90
1546;DHT22;766;51.502;9.752;2022-10-30T01:43:12;13.60;99.90
1546;DHT22;766;51.502;9.752;2022-10-30T01:45:58;13.80;99.90
1546;DHT22;766;51.502;9.752;2022-10-30T01:48:48;14.00;99.90
1546;DHT22;766;51.502;9.752;2022-10-30T01:51:32;14.20;99.90
1546;DHT22;766;51.502;9.752;2022-10-30T01:54:08;14.20;99.90
1546;DHT22;766;51.502;9.752;2022-10-30T01:56:46;14.20;99.90
1546;DHT22;766;51.502;9.752;2022-10-30T01:59:25;14.20;99.90
1546;DHT22;766;51.502;9.752;2022-10-30T02:01:56;14.40;99.90
1546;DHT22;766;51.502;9.752;2022-10-30T02:04:28;14.70;99.90
1546;DHT22;766;51.502;9.752;2022-10-30T02:06:57;14.90;99.90
1546;DHT22;766;51.502;9.752;2022-10-30T02:09:25;15.30;99.90
1546;DHT22;766;51.502;9.752;2022-10-30T02:11:54;15.70;99.90
1546;DHT22;766;51.502;9.752;2022-10-30T02:14:27;15.90;99.90
1546;DHT22;766;51.502;9.752;2022-10-30T02:16:57;16.10;99.90
1546;DHT22;766;51.502;9.752;2022-10-30T02:19:30;16.10;99.90
1546;DHT22;766;51.502;9.752;2022-10-30T02:22:00;16.20;99.90
1546;DHT22;766;51.502;9.752;2022-10-30T02:24:29;16.20;99.90
1546;DHT22;766;51.502;9.752;2022-10-30T02:26:58;16.30;99.90
1546;DHT22;766;51.502;9.752;2022-10-30T02:29:27;16.30;99.90
1546;DHT22;766;51.502;9.752;2022-10-30T02:31:55;16.20;99.90
1546;DHT22;766;51.502;9.752;2022-10-30T02:34:24;16.10;99.90
1546;DHT22;766;51.502;9.752;2022-10-30T02:36:52;16.10;99.90
1546;DHT22;766;51.502;9.752;2022-10-30T02:39:22;16.10;99.90
1546;DHT22;766;51.502;9.752;2022-10-30T02:41:50;16.10;99.90
1546;DHT22;766;51.502;9.752;2022-10-30T02:44:18;16.10;99.90
1546;DHT22;766;51.502;9.752;2022-10-30T02:46:47;16.10;99.90
1546;DHT22;766;51.502;9.752;2022-10-30T02:49:16;16.10;99.90
1546;DHT22;766;51.502;9.752;2022-10-30T02:51:44;16.10;99.90
1546;DHT22;766;51.502;9.752;2022-10-30T02:54:13;16.10;99.90
1546;DHT22;766;51.502;9.752;2022-10-30T02:56:43;16.20;99.90
1546;DHT22;766;51.502;9.752;2022-10-30T02:59:12;16.20;99.90
1546;DHT22;766;51.502;9.752;2022-10-30T03:01:40;16.20;99.90
1546;DHT22;766;51.502;9.752;2022-10-30T03:04:09;16.30;99.90
1546;DHT22;766;51.502;9.752;2022-10-30T03:06:37;16.30;99.90
1546;DHT22;766;51.502;9.752;2022-10-30T03:09:06;16.30;99.90
1546;DHT22;766;51.502;9.752;2022-10-30T03:11:35;16.30;99.90
1546;DHT22;766;51.502;9.752;2022-10-30T03:14:04;16.40;99.90
1546;DHT22;766;51.502;9.752;2022-10-30T03:16:33;16.30;99.90
1546;DHT22;766;51.502;9.752;2022-10-30T03:19:03;16.30;99.90
1546;DHT22;766;51.502;9.752;2022-10-30T03:21:35;16.20;99.90
1546;DHT22;766;51.502;9.752;2022-10-30T03:24:04;16.30;99.90
1546;DHT22;766;51.502;9.752;2022-10-30T03:26:33;16.40;99.90
1546;DHT22;766;51.502;9.752;2022-10-30T03:29:01;16.30;99.90
1546;DHT22;766;51.502;9.752;2022-10-30T03:31:32;16.30;99.90
1546;DHT22;766;51.502;9.752;2022-10-30T03:34:01;16.20;99.90
1546;DHT22;766;51.502;9.752;2022-10-30T03:36:29;16.20;99.90
1546;DHT22;766;51.502;9.752;2022-10-30T03:38:58;16.10;99.90
1546;DHT22;766;51.502;9.752;2022-10-30T03:41:26;16.00;99.90
1546;DHT22;766;51.502;9.752;2022-10-30T03:43:55;16.10;99.90
1546;DHT22;766;51.502;9.752;2022-10-30T03:46:26;16.10;99.90
1546;DHT22;766;51.502;9.752;2022-10-30T03:48:57;16.00;99.90
1546;DHT22;766;51.502;9.752;2022-10-30T03:51:27;16.00;99.90
1546;DHT22;766;51.502;9.752;2022-10-30T03:53:56;16.00;99.90
1546;DHT22;766;51.502;9.752;2022-10-30T03:56:25;16.00;99.90
1546;DHT22;766;51.502;9.752;2022-10-30T03:58:53;16.00;99.90
1546;DHT22;766;51.502;9.752;2022-10-30T04:01:22;16.00;99.90
1546;DHT22;766;51.502;9.752;2022-10-30T04:03:51;15.80;99.90
1546;DHT22;766;51.502;9.752;2022-10-30T04:06:20;15.70;99.90
1546;DHT22;766;51.502;9.752;2022-10-30T04:08:49;15.70;99.90
1546;DHT22;766;51.502;9.752;2022-10-30T04:11:18;15.60;99.90
1546;DHT22;766;51.502;9.752;2022-10-30T04:13:46;15.50;99.90
1546;DHT22;766;51.502;9.752;2022-10-30T04:16:15;15.40;99.90
1546;DHT22;766;51.502;9.752;2022-10-30T04:18:45;15.40;99.90
1546;DHT22;766;51.502;9.752;2022-10-30T04:21:14;15.20;99.90
1546;DHT22;766;51.502;9.752;2022-10-30T04:23:44;15.20;99.90
1546;DHT22;766;51.502;9.752;2022-10-30T04:26:12;15.30;99.90
1546;DHT22;766;51.502;9.752;2022-10-30T04:28:41;15.40;99.90
1546;DHT22;766;51.502;9.752;2022-10-30T04:31:09;15.50;99.90
1546;DHT22;766;51.502;9.752;2022-10-30T04:33:37;15.60;99.90
1546;DHT22;766;51.502;9.752;2022-10-30T04:36:06;15.70;99.90
1546;DHT22;766;51.502;9.752;2022-10-30T04:38:35;15.70;99.90
1546;DHT22;766;51.502;9.752;2022-10-30T04:41:04;15.80;99.90
1546;DHT22;766;51.502;9.752;2022-10-30T04:43:35;15.80;99.90
1546;DHT22;766;51.502;9.752;2022-10-30T04:46:04;15.80;99.90
1546;DHT22;766;51.502;9.752;2022-10-30T04:48:32;15.90;99.90
1546;DHT22;766;51.502;9.752;2022-10-30T04:51:03;15.90;99.90
1546;DHT22;766;51.502;9.752;2022-10-30T04:53:31;16.00;99.90
1546;DHT22;766;51.502;9.752;2022-10-30T04:56:00;16.00;99.90
1546;DHT22;766;51.502;9.752;2022-10-30T04:58:30;16.00;99.90
1546;DHT22;766;51.502;9.752;2022-10-30T05:01:00;16.00;99.90
1546;DHT22;766;51.502;9.752;2022-10-30T05:03:29;15.90;99.90
1546;DHT22;766;51.502;9.752;2022-10-30T05:06:00;15.90;99.90
1546;DHT22;766;51.502;9.752;2022-10-30T05:08:29;15.80;99.90
1546;DHT22;766;51.502;9.752;2022-10-30T05:10:58;15.80;99.90
1546;DHT22;766;51.502;9.752;2022-10-30T05:13:26;15.90;99.90
1546;DHT22;766;51.502;9.752;2022-10-30T05:15:56;15.90;99.90
1546;DHT22;766;51.502;9.752;2022-10-30T05:18:25;15.90;99.90
1546;DHT22;766;51.502;9.752;2022-10-30T05:20:53;15.90;99.90
1546;DHT22;766;51.502;9.752;2022-10-30T05:23:22;15.90;99.90
1546;DHT22;766;51.502;9.752;2022-10-30T05:25:50;15.90;99.90
1546;DHT22;766;51.502;9.752;2022-10-30T05:28:19;15.90;99.90
1546;DHT22;766;51.502;9.752;2022-10-30T05:30:50;15.90;99.90
1546;DHT22;766;51.502;9.752;2022-10-30T05:33:20;15.80;99.90
1546;DHT22;766;51.502;9.752;2022-10-30T05:35:49;15.70;99.90
1546;DHT22;766;51.502;9.752;2022-10-30T05:38:18;15.70;99.90
1546;DHT22;766;51.502;9.752;2022-10-30T05:40:46;15.70;99.90
1546;DHT22;766;51.502;9.752;2022-10-30T05:43:14;15.60;99.90
1546;DHT22;766;51.502;9.752;2022-10-30T05:45:43;15.60;99.90
1546;DHT22;766;51.502;9.752;2022-10-30T05:48:12;15.40;99.90
1546;DHT22;766;51.502;9.752;2022-10-30T05:50:42;15.40;99.90
1546;DHT22;766;51.502;9.752;2022-10-30T05:53:10;15.40;99.90
1546;DHT22;766;51.502;9.752;2022-10-30T05:55:40;15.40;99.90
1546;DHT22;766;51.502;9.752;2022-10-30T05:58:09;15.40;99.90
1546;DHT22;766;51.502;9.752;2022-10-30T06:00:37;15.40;99.90
1546;DHT22;766;51.502;9.752;2022-10-30T06:03:09;15.30;99.90
1546;DHT22;766;51.502;9.752;2022-10-30T06:05:38;15.40;99.90
1546;DHT22;766;51.502;9.752;2022-10-30T06:08:08;15.40;99.90
1546;DHT22;766;51.502;9.752;2022-10-30T06:10:36;15.40;99.90
1546;DHT22;766;51.502;9.752;2022-10-30T06:13:06;15.40;99.90
1546;DHT22;766;51.502;9.752;2022-10-30T06:15:34;15.30;99.90
1546;DHT22;766;51.502;9.752;2022-10-30T06:18:03;15.30;99.90
1546;DHT22;766;51.502;9.752;2022-10-30T06:20:31;15.40;99.90
1546;DHT22;766;51.502;9.752;2022-10-30T06:23:01;15.40;99.90
1546;DHT22;766;51.502;9.752;2022-10-30T06:25:33;15.40;99.90
1546;DHT22;766;51.502;9.752;2022-10-30T06:28:08;15.40;99.90
1546;DHT22;766;51.502;9.752;2022-10-30T06:30:37;15.50;99.90
1546;DHT22;766;51.502;9.752;2022-10-30T06:33:06;15.60;99.90
1546;DHT22;766;51.502;9.752;2022-10-30T06:35:34;15.50;99.90
1546;DHT22;766;51.502;9.752;2022-10-30T06:38:03;15.50;99.90
1546;DHT22;766;51.502;9.752;2022-10-30T06:40:33;15.50;99.90
1546;DHT22;766;51.502;9.752;2022-10-30T06:43:02;15.50;99.90
1546;DHT22;766;51.502;9.752;2022-10-30T06:45:33;15.50;99.90
1546;DHT22;766;51.502;9.752;2022-10-30T06:48:02;15.60;99.90
1546;DHT22;766;51.502;9.752;2022-10-30T06:50:31;15.50;99.90
1546;DHT22;766;51.502;9.752;2022-10-30T06:52:59;15.60;99.90
1546;DHT22;766;51.502;9.752;2022-10-30T06:55:27;15.50;99.90
1546;DHT22;766;51.502;9.752;2022-10-30T06:57:57;15.50;99.90
1546;DHT22;766;51.502;9.752;2022-10-30T07:00:25;15.50;99.90
1546;DHT22;766;51.502;9.752;2022-10-30T07:02:55;15.60;99.90
1546;DHT22;766;51.502;9.752;2022-10-30T07:05:24;15.60;99.90
1546;DHT22;766;51.502;9.752;2022-10-30T07:07:55;15.60;99.90
1546;DHT22;766;51.502;9.752;2022-10-30T07:10:24;15.60;99.90
1546;DHT22;766;51.502;9.752;2022-10-30T07:12:53;15.60;99.90
1546;DHT22;766;51.502;9.752;2022-10-30T07:15:25;15.50;99.90
1546;DHT22;766;51.502;9.752;2022-10-30T07:17:56;15.50;99.90
1546;DHT22;766;51.502;9.752;2022-10-30T07:20:27;15.50;99.90
1546;DHT22;766;51.502;9.752;2022-10-30T07:22:59;15.60;99.90
1546;DHT22;766;51.502;9.752;2022-10-30T07:25:29;15.60;99.90
1546;DHT22;766;51.502;9.752;2022-10-30T07:27:58;15.70;99.90
1546;DHT22;766;51.502;9.752;2022-10-30T07:30:32;15.80;99.90
1546;DHT22;766;51.502;9.752;2022-10-30T07:33:02;15.80;99.90
1546;DHT22;766;51.502;9.752;2022-10-30T07:35:32;15.80;99.90
1546;DHT22;766;51.502;9.752;2022-10-30T07:38:02;15.80;99.90
1546;DHT22;766;51.502;9.752;2022-10-30T07:40:31;15.80;99.90
1546;DHT22;766;51.502;9.752;2022-10-30T07:43:01;15.80;99.90
1546;DHT22;766;51.502;9.752;2022-10-30T07:45:31;15.80;99.90
1546;DHT22;766;51.502;9.752;2022-10-30T07:48:00;15.70;99.90
1546;DHT22;766;51.502;9.752;2022-10-30T07:50:29;15.80;99.90
1546;DHT22;766;51.502;9.752;2022-10-30T07:52:57;15.80;99.90
1546;DHT22;766;51.502;9.752;2022-10-30T07:55:26;15.90;99.90
1546;DHT22;766;51.502;9.752;2022-10-30T07:57:54;15.90;99.90
1546;DHT22;766;51.502;9.752;2022-10-30T08:00:23;15.90;99.90
1546;DHT22;766;51.502;9.752;2022-10-30T08:02:56;16.00;99.90
1546;DHT22;766;51.502;9.752;2022-10-30T08:05:25;16.10;99.90
1546;DHT22;766;51.502;9.752;2022-10-30T08:07:56;16.20;99.90
1546;DHT22;766;51.502;9.752;2022-10-30T08:10:25;16.30;99.90
1546;DHT22;766;51.502;9.752;2022-10-30T08:12:54;16.30;99.90
1546;DHT22;766;51.502;9.752;2022-10-30T08:15:23;16.50;99.90
1546;DHT22;766;51.502;9.752;2022-10-30T08:17:51;16.60;99.90
1546;DHT22;766;51.502;9.752;2022-10-30T08:20:23;16.70;99.90
1546;DHT22;766;51.502;9.752;2022-10-30T08:22:53;16.80;99.90
1546;DHT22;766;51.502;9.752;2022-10-30T08:25:25;17.00;99.90
1546;DHT22;766;51.502;9.752;2022-10-30T08:27:55;17.10;99.90
1546;DHT22;766;51.502;9.752;2022-10-30T08:30:25;17.20;99.90
1546;DHT22;766;51.502;9.752;2022-10-30T08:32:56;17.20;99.90
1546;DHT22;766;51.502;9.752;2022-10-30T08:35:27;17.30;99.90
1546;DHT22;766;51.502;9.752;2022-10-30T08:37:56;17.20;99.90
1546;DHT22;766;51.502;9.752;2022-10-30T08:40:26;17.30;99.90
1546;DHT22;766;51.502;9.752;2022-10-30T08:42:56;17.30;99.90
1546;DHT22;766;51.502;9.752;2022-10-30T08:45:25;17.50;99.90
1546;DHT22;766;51.502;9.752;2022-10-30T08:47:57;17.50;99.90
1546;DHT22;766;51.502;9.752;2022-10-30T08:50:28;17.50;99.90
1546;DHT22;766;51.502;9.752;2022-10-30T08:53:00;17.50;99.90
1546;DHT22;766;51.502;9.752;2022-10-30T08:55:30;17.50;99.90
1546;DHT22;766;51.502;9.752;2022-10-30T08:57:58;17.70;99.90
1546;DHT22;766;51.502;9.752;2022-10-30T09:00:27;17.90;99.90
1546;DHT22;766;51.502;9.752;2022-10-30T09:02:57;17.90;99.90
1546;DHT22;766;51.502;9.752;2022-10-30T09:05:26;18.10;99.90
1546;DHT22;766;51.502;9.752;2022-10-30T09:07:56;18.20;99.90
1546;DHT22;766;51.502;9.752;2022-10-30T09:10:28;18.20;99.90
1546;DHT22;766;51.502;9.752;2022-10-30T09:12:58;18.40;99.90
1546;DHT22;766;51.502;9.752;2022-10-30T09:15:32;18.40;99.90
1546;DHT22;766;51.502;9.752;2022-10-30T09:18:02;18.50;99.90
1546;DHT22;766;51.502;9.752;2022-10-30T09:20:30;18.50;99.90
1546;DHT22;766;51.502;9.752;2022-10-30T09:23:01;18.60;99.90
1546;DHT22;766;51.502;9.752;2022-10-30T09:25:32;18.70;99.90
1546;DHT22;766;51.502;9.752;2022-10-30T09:28:00;18.80;99.90
1546;DHT22;766;51.502;9.752;2022-10-30T09:30:29;18.90;99.90
1546;DHT22;766;51.502;9.752;2022-10-30T09:32:58;18.90;99.90
1546;DHT22;766;51.502;9.752;2022-10-30T09:35:29;18.80;99.90
1546;DHT22;766;51.502;9.752;2022-10-30T09:37:58;18.80;99.90
1546;DHT22;766;51.502;9.752;2022-10-30T09:40:38;18.80;99.90
1546;DHT22;766;51.502;9.752;2022-10-30T09:43:20;18.90;99.90
1546;DHT22;766;51.502;9.752;2022-10-30T09:46:07;18.90;99.90
1546;DHT22;766;51.502;9.752;2022-10-30T09:48:54;19.10;99.90
1546;DHT22;766;51.502;9.752;2022-10-30T09:51:57;19.20;99.90
1546;DHT22;766;51.502;9.752;2022-10-30T09:54:37;19.40;99.90
1546;DHT22;766;51.502;9.752;2022-10-30T09:57:16;19.40;99.90
1546;DHT22;766;51.502;9.752;2022-10-30T10:00:00;19.60;99.90
1546;DHT22;766;51.502;9.752;2022-10-30T10:02:35;19.70;99.90
1546;DHT22;766;51.502;9.752;2022-10-30T10:05:10;20.00;99.90
1546;DHT22;766;51.502;9.752;2022-10-30T10:07:44;20.10;99.90
1546;DHT22;766;51.502;9.752;2022-10-30T10:10:19;20.10;99.90
1546;DHT22;766;51.502;9.752;2022-10-30T10:12:51;20.20;99.90
1546;DHT22;766;51.502;9.752;2022-10-30T10:15:37;20.50;99.90
1546;DHT22;766;51.502;9.752;2022-10-30T10:18:15;20.60;99.90
1546;DHT22;766;51.502;9.752;2022-10-30T10:20:47;20.90;99.90
1546;DHT22;766;51.502;9.752;2022-10-30T10:23:18;20.70;99.90
1546;DHT22;766;51.502;9.752;2022-10-30T10:25:52;20.90;99.90
1546;DHT22;766;51.502;9.752;2022-10-30T10:28:41;20.60;99.90
1546;DHT22;766;51.502;9.752;2022-10-30T10:31:23;20.60;99.90
1546;DHT22;766;51.502;9.752;2022-10-30T10:34:08;20.70;99.90
1546;DHT22;766;51.502;9.752;2022-10-30T10:36:48;20.60;99.90
1546;DHT22;766;51.502;9.752;2022-10-30T10:39:33;20.80;99.90
1546;DHT22;766;51.502;9.752;2022-10-30T10:42:15;21.00;99.90
1546;DHT22;766;51.502;9.752;2022-10-30T10:44:55;21.10;99.90
1546;DHT22;766;51.502;9.752;2022-10-30T10:47:40;21.20;99.90
1546;DHT22;766;51.502;9.752;2022-10-30T10:50:18;21.00;99.90
1546;DHT22;766;51.502;9.752;2022-10-30T10:52:51;21.20;99.90
1546;DHT22;766;51.502;9.752;2022-10-30T10:55:23;21.40;99.90
1546;DHT22;766;51.502;9.752;2022-10-30T10:57:58;21.40;99.90
1546;DHT22;766;51.502;9.752;2022-10-30T11:00:28;21.10;99.90
1546;DHT22;766;51.502;9.752;2022-10-30T11:03:09;21.00;99.90
1546;DHT22;766;51.502;9.752;2022-10-30T11:05:45;21.00;99.90
1546;DHT22;766;51.502;9.752;2022-10-30T11:08:18;20.90;99.90
1546;DHT22;766;51.502;9.752;2022-10-30T11:10:49;21.00;99.90
1546;DHT22;766;51.502;9.752;2022-10-30T11:13:22;21.00;99.90
1546;DHT22;766;51.502;9.752;2022-10-30T11:15:58;21.30;99.90
1546;DHT22;766;51.502;9.752;2022-10-30T11:18:28;21.50;99.90
1546;DHT22;766;51.502;9.752;2022-10-30T11:20:59;21.40;99.90
1546;DHT22;766;51.502;9.752;2022-10-30T11:23:37;21.50;99.90
1546;DHT22;766;51.502;9.752;2022-10-30T11:26:28;21.50;99.90
1546;DHT22;766;51.502;9.752;2022-10-30T11:29:02;21.30;99.90
1546;DHT22;766;51.502;9.752;2022-10-30T11:31:34;21.50;99.90
1546;DHT22;766;51.502;9.752;2022-10-30T11:34:24;21.60;99.90
1546;DHT22;766;51.502;9.752;2022-10-30T11:36:57;21.60;99.90
1546;DHT22;766;51.502;9.752;2022-10-30T11:39:26;21.60;99.90
1546;DHT22;766;51.502;9.752;2022-10-30T11:42:01;21.70;99.90
1546;DHT22;766;51.502;9.752;2022-10-30T11:44:34;21.60;99.90
1546;DHT22;766;51.502;9.752;2022-10-30T11:47:05;21.60;99.90
1546;DHT22;766;51.502;9.752;2022-10-30T11:49:40;21.60;99.90
1546;DHT22;766;51.502;9.752;2022-10-30T11:52:14;21.70;99.90
1546;DHT22;766;51.502;9.752;2022-10-30T11:54:45;21.90;99.90
1546;DHT22;766;51.502;9.752;2022-10-30T11:57:22;21.90;99.90
1546;DHT22;766;51.502;9.752;2022-10-30T11:59:53;22.10;99.90
1546;DHT22;766;51.502;9.752;2022-10-30T12:02:39;22.20;99.90
1546;DHT22;766;51.502;9.752;2022-10-30T12:05:37;22.20;99.90
1546;DHT22;766;51.502;9.752;2022-10-30T12:08:17;22.30;99.90
1546;DHT22;766;51.502;9.752;2022-10-30T12:10:55;22.10;99.90
1546;DHT22;766;51.502;9.752;2022-10-30T12:13:24;22.00;99.90
1546;DHT22;766;51.502;9.752;2022-10-30T12:16:08;21.90;99.90
1546;DHT22;766;51.502;9.752;2022-10-30T12:18:41;21.90;99.90
1546;DHT22;766;51.502;9.752;2022-10-30T12:21:18;22.00;99.90
1546;DHT22;766;51.502;9.752;2022-10-30T12:23:54;22.20;99.90
1546;DHT22;766;51.502;9.752;2022-10-30T12:26:25;22.40;99.90
1546;DHT22;766;51.502;9.752;2022-10-30T12:28:57;22.50;99.90
1546;DHT22;766;51.502;9.752;2022-10-30T12:31:33;22.70;99.90
1546;DHT22;766;51.502;9.752;2022-10-30T12:34:18;22.50;99.90
1546;DHT22;766;51.502;9.752;2022-10-30T12:36:52;22.50;99.90
1546;DHT22;766;51.502;9.752;2022-10-30T12:39:26;22.60;99.90
1546;DHT22;766;51.502;9.752;2022-10-30T12:41:59;22.60;99.90
1546;DHT22;766;51.502;9.752;2022-10-30T12:44:32;22.80;99.90
1546;DHT22;766;51.502;9.752;2022-10-30T12:47:07;23.00;99.90
1546;DHT22;766;51.502;9.752;2022-10-30T12:49:42;23.30;99.90
1546;DHT22;766;51.502;9.752;2022-10-30T12:52:16;23.50;99.90
1546;DHT22;766;51.502;9.752;2022-10-30T12:54:50;23.70;99.90
1546;DHT22;766;51.502;9.752;2022-10-30T12:57:24;23.90;99.90
1546;DHT22;766;51.502;9.752;2022-10-30T13:00:00;24.30;99.90
1546;DHT22;766;51.502;9.752;2022-10-30T13:02:43;24.30;99.90
1546;DHT22;766;51.502;9.752;2022-10-30T13:05:23;24.90;99.90
1546;DHT22;766;51.502;9.752;2022-10-30T13:08:03;25.10;99.90
1546;DHT22;766;51.502;9.752;2022-10-30T13:10:40;24.90;99.90
1546;DHT22;766;51.502;9.752;2022-10-30T13:13:13;24.70;99.90
1546;DHT22;766;51.502;9.752;2022-10-30T13:15:45;24.60;99.90
1546;DHT22;766;51.502;9.752;2022-10-30T13:18:17;24.40;99.90
1546;DHT22;766;51.502;9.752;2022-10-30T13:21:00;23.50;99.90
1546;DHT22;766;51.502;9.752;2022-10-30T13:23:35;23.90;99.90
1546;DHT22;766;51.502;9.752;2022-10-30T13:26:15;23.90;99.90
1546;DHT22;766;51.502;9.752;2022-10-30T13:28:50;23.70;99.90
1546;DHT22;766;51.502;9.752;2022-10-30T13:31:26;23.70;99.90
1546;DHT22;766;51.502;9.752;2022-10-30T13:34:00;23.80;99.90
1546;DHT22;766;51.502;9.752;2022-10-30T13:36:37;24.00;99.90
1546;DHT22;766;51.502;9.752;2022-10-30T13:39:23;24.20;99.90
1546;DHT22;766;51.502;9.752;2022-10-30T13:42:02;24.30;99.90
1546;DHT22;766;51.502;9.752;2022-10-30T13:44:39;24.50;99.90
1546;DHT22;766;51.502;9.752;2022-10-30T13:47:20;24.90;99.90
1546;DHT22;766;51.502;9.752;2022-10-30T13:50:25;25.00;99.90
1546;DHT22;766;51.502;9.752;2022-10-30T13:52:59;24.40;99.90
1546;DHT22;766;51.502;9.752;2022-10-30T13:55:30;24.10;99.90
1546;DHT22;766;51.502;9.752;2022-10-30T13:58:02;23.50;99.90
1546;DHT22;766;51.502;9.752;2022-10-30T14:00:49;23.30;99.90
1546;DHT22;766;51.502;9.752;2022-10-30T14:03:26;22.90;99.90
1546;DHT22;766;51.502;9.752;2022-10-30T14:06:01;22.80;99.90
1546;DHT22;766;51.502;9.752;2022-10-30T14:08:41;22.70;99.90
1546;DHT22;766;51.502;9.752;2022-10-30T14:11:12;22.70;99.90
1546;DHT22;766;51.502;9.752;2022-10-30T14:13:55;22.70;99.90
1546;DHT22;766;51.502;9.752;2022-10-30T14:16:40;22.80;99.90
1546;DHT22;766;51.502;9.752;2022-10-30T14:19:10;22.80;99.90
1546;DHT22;766;51.502;9.752;2022-10-30T14:21:43;22.80;99.90
1546;DHT22;766;51.502;9.752;2022-10-30T14:24:17;22.70;99.90
1546;DHT22;766;51.502;9.752;2022-10-30T14:26:52;22.60;99.90
1546;DHT22;766;51.502;9.752;2022-10-30T14:29:42;22.60;99.90
1546;DHT22;766;51.502;9.752;2022-10-30T14:32:38;22.60;99.90
1546;DHT22;766;51.502;9.752;2022-10-30T14:35:27;22.50;99.90
1546;DHT22;766;51.502;9.752;2022-10-30T14:38:24;22.30;99.90
1546;DHT22;766;51.502;9.752;2022-10-30T14:44:16;22.10;99.90
1546;DHT22;766;51.502;9.752;2022-10-30T14:47:02;21.90;99.90
1546;DHT22;766;51.502;9.752;2022-10-30T14:49:41;21.70;99.90
1546;DHT22;766;51.502;9.752;2022-10-30T14:52:15;21.50;99.90
1546;DHT22;766;51.502;9.752;2022-10-30T14:54:50;21.40;99.90
1546;DHT22;766;51.502;9.752;2022-10-30T14:57:42;21.10;99.90
1546;DHT22;766;51.502;9.752;2022-10-30T15:00:38;21.00;99.90
1546;DHT22;766;51.502;9.752;2022-10-30T15:03:17;21.00;99.90
1546;DHT22;766;51.502;9.752;2022-10-30T15:05:53;20.70;99.90
1546;DHT22;766;51.502;9.752;2022-10-30T15:08:47;20.50;99.90
1546;DHT22;766;51.502;9.752;2022-10-30T15:11:25;20.70;99.90
1546;DHT22;766;51.502;9.752;2022-10-30T15:14:01;20.40;99.90
1546;DHT22;766;51.502;9.752;2022-10-30T15:16:39;20.20;99.90
1546;DHT22;766;51.502;9.752;2022-10-30T15:19:11;20.30;99.90
1546;DHT22;766;51.502;9.752;2022-10-30T15:21:43;20.20;99.90
1546;DHT22;766;51.502;9.752;2022-10-30T15:24:15;19.90;99.90
1546;DHT22;766;51.502;9.752;2022-10-30T15:26:47;19.50;99.90
1546;DHT22;766;51.502;9.752;2022-10-30T15:29:19;19.20;99.90
1546;DHT22;766;51.502;9.752;2022-10-30T15:31:59;18.80;99.90
1546;DHT22;766;51.502;9.752;2022-10-30T15:34:30;18.80;99.90
1546;DHT22;766;51.502;9.752;2022-10-30T15:36:59;18.70;99.90
1546;DHT22;766;51.502;9.752;2022-10-30T15:39:37;18.70;99.90
1546;DHT22;766;51.502;9.752;2022-10-30T15:42:07;18.70;99.90
1546;DHT22;766;51.502;9.752;2022-10-30T15:44:40;18.60;99.90
1546;DHT22;766;51.502;9.752;2022-10-30T15:47:13;18.60;99.90
1546;DHT22;766;51.502;9.752;2022-10-30T15:49:47;18.50;99.90
1546;DHT22;766;51.502;9.752;2022-10-30T15:52:22;18.40;99.90
1546;DHT22;766;51.502;9.752;2022-10-30T15:54:53;18.50;99.90
1546;DHT22;766;51.502;9.752;2022-10-30T15:57:27;18.60;99.90
1546;DHT22;766;51.502;9.752;2022-10-30T16:00:22;18.60;99.90
1546;DHT22;766;51.502;9.752;2022-10-30T16:03:01;18.90;99.90
1546;DHT22;766;51.502;9.752;2022-10-30T16:05:30;19.00;99.90
1546;DHT22;766;51.502;9.752;2022-10-30T16:08:01;19.00;99.90
1546;DHT22;766;51.502;9.752;2022-10-30T16:10:32;19.00;99.90
1546;DHT22;766;51.502;9.752;2022-10-30T16:13:01;19.00;99.90
1546;DHT22;766;51.502;9.752;2022-10-30T16:15:34;19.00;99.90
1546;DHT22;766;51.502;9.752;2022-10-30T16:18:16;18.90;99.90
1546;DHT22;766;51.502;9.752;2022-10-30T16:20:48;18.90;99.90
1546;DHT22;766;51.502;9.752;2022-10-30T16:23:18;18.90;99.90
1546;DHT22;766;51.502;9.752;2022-10-30T16:25:48;19.00;99.90
1546;DHT22;766;51.502;9.752;2022-10-30T16:28:28;19.00;99.90
1546;DHT22;766;51.502;9.752;2022-10-30T16:31:00;19.00;99.90
1546;DHT22;766;51.502;9.752;2022-10-30T16:33:31;19.00;99.90
1546;DHT22;766;51.502;9.752;2022-10-30T16:36:02;18.90;99.90
1546;DHT22;766;51.502;9.752;2022-10-30T16:38:33;18.80;99.90
1546;DHT22;766;51.502;9.752;2022-10-30T16:41:05;18.80;99.90
1546;DHT22;766;51.502;9.752;2022-10-30T16:43:40;18.60;99.90
1546;DHT22;766;51.502;9.752;2022-10-30T16:46:38;18.40;99.90
1546;DHT22;766;51.502;9.752;2022-10-30T16:49:12;18.60;99.90
1546;DHT22;766;51.502;9.752;2022-10-30T16:51:42;18.60;99.90
1546;DHT22;766;51.502;9.752;2022-10-30T16:54:19;18.60;99.90
1546;DHT22;766;51.502;9.752;2022-10-30T16:56:53;18.50;99.90
1546;DHT22;766;51.502;9.752;2022-10-30T16:59:27;18.50;99.90